sensor_id;sensor_type;location;lat;lon;timestamp;P1;durP1;ratioP1;P2;durP2;ratioP2
23072;SDS011;34865;51.046;3.732;2022-12-01T00:02:58;62.10;;;33.13;;
23072;SDS011;34865;51.046;3.732;2022-12-01T00:05:48;65.20;;;33.80;;
23072;SDS011;34865;51.046;3.732;2022-12-01T00:09:03;69.30;;;35.17;;
23072;SDS011;34865;51.046;3.732;2022-12-01T00:11:56;68.50;;;36.30;;
23072;SDS011;34865;51.046;3.732;2022-12-01T00:14:36;76.20;;;36.83;;
23072;SDS011;34865;51.046;3.732;2022-12-01T00:17:28;70.40;;;35.80;;
23072;SDS011;34865;51.046;3.732;2022-12-01T00:20:01;75.80;;;38.17;;
23072;SDS011;34865;51.046;3.732;2022-12-01T00:22:37;69.57;;;36.10;;
23072;SDS011;34865;51.046;3.732;2022-12-01T00:25:14;78.27;;;37.30;;
23072;SDS011;34865;51.046;3.732;2022-12-01T00:28:20;70.67;;;37.07;;
23072;SDS011;34865;51.046;3.732;2022-12-01T00:30:58;74.70;;;37.07;;
23072;SDS011;34865;51.046;3.732;2022-12-01T00:37:34;74.80;;;38.50;;
23072;SDS011;34865;51.046;3.732;2022-12-01T00:40:54;72.33;;;37.93;;
23072;SDS011;34865;51.046;3.732;2022-12-01T00:44:11;74.33;;;35.33;;
23072;SDS011;34865;51.046;3.732;2022-12-01T00:46:54;76.43;;;37.50;;
23072;SDS011;34865;51.046;3.732;2022-12-01T00:49:51;71.33;;;36.40;;
23072;SDS011;34865;51.046;3.732;2022-12-01T00:52:59;74.63;;;35.13;;
23072;SDS011;34865;51.046;3.732;2022-12-01T00:56:06;75.57;;;36.73;;
23072;SDS011;34865;51.046;3.732;2022-12-01T00:59:21;68.87;;;34.53;;
23072;SDS011;34865;51.046;3.732;2022-12-01T01:02:15;71.83;;;35.03;;
23072;SDS011;34865;51.046;3.732;2022-12-01T01:04:57;64.70;;;33.37;;
23072;SDS011;34865;51.046;3.732;2022-12-01T01:07:50;67.73;;;33.67;;
23072;SDS011;34865;51.046;3.732;2022-12-01T01:11:04;65.00;;;31.90;;
23072;SDS011;34865;51.046;3.732;2022-12-01T01:14:07;67.10;;;33.00;;
23072;SDS011;34865;51.046;3.732;2022-12-01T01:17:15;67.47;;;32.53;;
23072;SDS011;34865;51.046;3.732;2022-12-01T01:19:51;59.67;;;31.83;;
23072;SDS011;34865;51.046;3.732;2022-12-01T01:22:37;62.87;;;32.43;;
23072;SDS011;34865;51.046;3.732;2022-12-01T01:25:12;68.63;;;32.87;;
23072;SDS011;34865;51.046;3.732;2022-12-01T01:27:44;65.30;;;32.70;;
23072;SDS011;34865;51.046;3.732;2022-12-01T01:30:20;71.53;;;34.77;;
23072;SDS011;34865;51.046;3.732;2022-12-01T01:33:12;68.37;;;33.80;;
23072;SDS011;34865;51.046;3.732;2022-12-01T01:35:46;63.77;;;32.37;;
23072;SDS011;34865;51.046;3.732;2022-12-01T01:38:44;66.80;;;34.23;;
23072;SDS011;34865;51.046;3.732;2022-12-01T01:41:24;65.10;;;33.00;;
23072;SDS011;34865;51.046;3.732;2022-12-01T01:43:55;70.10;;;35.17;;
23072;SDS011;34865;51.046;3.732;2022-12-01T01:47:16;64.73;;;32.23;;
23072;SDS011;34865;51.046;3.732;2022-12-01T01:50:28;63.83;;;32.70;;
23072;SDS011;34865;51.046;3.732;2022-12-01T01:53:27;66.37;;;33.67;;
23072;SDS011;34865;51.046;3.732;2022-12-01T01:56:05;63.33;;;32.13;;
23072;SDS011;34865;51.046;3.732;2022-12-01T01:58:49;63.13;;;33.10;;
23072;SDS011;34865;51.046;3.732;2022-12-01T02:01:26;70.03;;;34.37;;
23072;SDS011;34865;51.046;3.732;2022-12-01T02:03:58;68.93;;;36.23;;
23072;SDS011;34865;51.046;3.732;2022-12-01T02:06:48;70.40;;;35.83;;
23072;SDS011;34865;51.046;3.732;2022-12-01T02:09:17;70.53;;;36.53;;
23072;SDS011;34865;51.046;3.732;2022-12-01T02:14:52;67.53;;;32.80;;
23072;SDS011;34865;51.046;3.732;2022-12-01T02:21:33;58.43;;;29.13;;
23072;SDS011;34865;51.046;3.732;2022-12-01T02:31:32;66.73;;;34.70;;
23072;SDS011;34865;51.046;3.732;2022-12-01T02:37:56;63.57;;;32.80;;
23072;SDS011;34865;51.046;3.732;2022-12-01T02:47:15;63.87;;;33.70;;
23072;SDS011;34865;51.046;3.732;2022-12-01T02:49:50;66.20;;;32.77;;
23072;SDS011;34865;51.046;3.732;2022-12-01T02:52:27;64.07;;;34.70;;
23072;SDS011;34865;51.046;3.732;2022-12-01T02:55:14;66.70;;;33.40;;
23072;SDS011;34865;51.046;3.732;2022-12-01T02:57:54;64.67;;;34.27;;
23072;SDS011;34865;51.046;3.732;2022-12-01T03:00:27;64.70;;;32.43;;
23072;SDS011;34865;51.046;3.732;2022-12-01T03:05:54;66.50;;;33.47;;
23072;SDS011;34865;51.046;3.732;2022-12-01T03:12:22;60.87;;;31.43;;
23072;SDS011;34865;51.046;3.732;2022-12-01T03:25:31;62.13;;;32.20;;
23072;SDS011;34865;51.046;3.732;2022-12-01T03:28:29;63.37;;;33.70;;
23072;SDS011;34865;51.046;3.732;2022-12-01T03:31:14;63.57;;;31.77;;
23072;SDS011;34865;51.046;3.732;2022-12-01T03:38:01;63.33;;;33.70;;
23072;SDS011;34865;51.046;3.732;2022-12-01T03:41:01;62.53;;;30.77;;
23072;SDS011;34865;51.046;3.732;2022-12-01T03:44:02;60.73;;;32.87;;
23072;SDS011;34865;51.046;3.732;2022-12-01T03:47:06;57.57;;;30.13;;
23072;SDS011;34865;51.046;3.732;2022-12-01T03:56:06;58.40;;;32.90;;
23072;SDS011;34865;51.046;3.732;2022-12-01T03:58:55;56.80;;;31.23;;
23072;SDS011;34865;51.046;3.732;2022-12-01T04:01:56;62.03;;;31.87;;
23072;SDS011;34865;51.046;3.732;2022-12-01T04:04:59;63.07;;;31.70;;
23072;SDS011;34865;51.046;3.732;2022-12-01T04:07:55;63.00;;;32.90;;
23072;SDS011;34865;51.046;3.732;2022-12-01T04:11:09;57.97;;;31.60;;
23072;SDS011;34865;51.046;3.732;2022-12-01T04:14:16;55.83;;;27.30;;
23072;SDS011;34865;51.046;3.732;2022-12-01T04:16:53;61.13;;;30.40;;
23072;SDS011;34865;51.046;3.732;2022-12-01T04:19:33;58.47;;;31.60;;
23072;SDS011;34865;51.046;3.732;2022-12-01T04:22:10;54.57;;;27.80;;
23072;SDS011;34865;51.046;3.732;2022-12-01T04:24:57;57.53;;;29.70;;
23072;SDS011;34865;51.046;3.732;2022-12-01T04:27:46;62.07;;;32.13;;
23072;SDS011;34865;51.046;3.732;2022-12-01T04:30:36;58.33;;;30.73;;
23072;SDS011;34865;51.046;3.732;2022-12-01T04:37:04;55.30;;;28.97;;
23072;SDS011;34865;51.046;3.732;2022-12-01T04:39:47;59.20;;;30.37;;
23072;SDS011;34865;51.046;3.732;2022-12-01T04:42:46;54.60;;;28.70;;
23072;SDS011;34865;51.046;3.732;2022-12-01T04:45:36;54.77;;;30.00;;
23072;SDS011;34865;51.046;3.732;2022-12-01T04:48:03;56.93;;;30.67;;
23072;SDS011;34865;51.046;3.732;2022-12-01T04:51:11;57.27;;;29.57;;
23072;SDS011;34865;51.046;3.732;2022-12-01T04:53:47;58.53;;;30.87;;
23072;SDS011;34865;51.046;3.732;2022-12-01T04:56:31;64.33;;;32.00;;
23072;SDS011;34865;51.046;3.732;2022-12-01T04:59:09;64.13;;;31.57;;
23072;SDS011;34865;51.046;3.732;2022-12-01T05:01:54;60.37;;;31.97;;
23072;SDS011;34865;51.046;3.732;2022-12-01T05:04:32;61.57;;;31.93;;
23072;SDS011;34865;51.046;3.732;2022-12-01T05:07:07;61.53;;;31.97;;
23072;SDS011;34865;51.046;3.732;2022-12-01T05:12:33;64.17;;;32.67;;
23072;SDS011;34865;51.046;3.732;2022-12-01T05:17:54;66.10;;;31.20;;
23072;SDS011;34865;51.046;3.732;2022-12-01T05:20:34;59.10;;;31.03;;
23072;SDS011;34865;51.046;3.732;2022-12-01T05:23:19;67.77;;;33.50;;
23072;SDS011;34865;51.046;3.732;2022-12-01T05:25:50;63.57;;;31.83;;
23072;SDS011;34865;51.046;3.732;2022-12-01T05:28:26;63.77;;;31.93;;
23072;SDS011;34865;51.046;3.732;2022-12-01T05:31:32;63.73;;;31.27;;
23072;SDS011;34865;51.046;3.732;2022-12-01T05:34:07;67.07;;;33.13;;
23072;SDS011;34865;51.046;3.732;2022-12-01T05:36:40;63.93;;;31.90;;
23072;SDS011;34865;51.046;3.732;2022-12-01T05:39:32;67.30;;;33.10;;
23072;SDS011;34865;51.046;3.732;2022-12-01T05:42:19;66.43;;;33.20;;
23072;SDS011;34865;51.046;3.732;2022-12-01T05:44:55;71.40;;;33.57;;
23072;SDS011;34865;51.046;3.732;2022-12-01T05:47:38;65.87;;;32.17;;
23072;SDS011;34865;51.046;3.732;2022-12-01T05:50:11;71.13;;;33.80;;
23072;SDS011;34865;51.046;3.732;2022-12-01T05:52:42;67.33;;;33.03;;
23072;SDS011;34865;51.046;3.732;2022-12-01T05:55:14;71.47;;;33.33;;
23072;SDS011;34865;51.046;3.732;2022-12-01T05:57:49;65.80;;;33.87;;
23072;SDS011;34865;51.046;3.732;2022-12-01T06:00:25;68.30;;;33.40;;
23072;SDS011;34865;51.046;3.732;2022-12-01T06:02:57;69.43;;;33.97;;
23072;SDS011;34865;51.046;3.732;2022-12-01T06:05:34;70.77;;;33.57;;
23072;SDS011;34865;51.046;3.732;2022-12-01T06:08:20;66.87;;;34.50;;
23072;SDS011;34865;51.046;3.732;2022-12-01T06:10:51;73.53;;;35.47;;
23072;SDS011;34865;51.046;3.732;2022-12-01T06:13:22;72.27;;;35.13;;
23072;SDS011;34865;51.046;3.732;2022-12-01T06:15:54;72.83;;;35.27;;
23072;SDS011;34865;51.046;3.732;2022-12-01T06:18:30;70.30;;;35.37;;
23072;SDS011;34865;51.046;3.732;2022-12-01T06:21:21;70.37;;;33.77;;
23072;SDS011;34865;51.046;3.732;2022-12-01T06:23:58;74.30;;;34.87;;
23072;SDS011;34865;51.046;3.732;2022-12-01T06:26:30;68.17;;;34.33;;
23072;SDS011;34865;51.046;3.732;2022-12-01T06:29:03;71.53;;;37.57;;
23072;SDS011;34865;51.046;3.732;2022-12-01T06:31:32;74.43;;;35.13;;
23072;SDS011;34865;51.046;3.732;2022-12-01T06:34:13;70.20;;;35.27;;
23072;SDS011;34865;51.046;3.732;2022-12-01T06:37:01;73.80;;;36.20;;
23072;SDS011;34865;51.046;3.732;2022-12-01T06:39:43;74.07;;;35.07;;
23072;SDS011;34865;51.046;3.732;2022-12-01T06:42:39;70.43;;;35.30;;
23072;SDS011;34865;51.046;3.732;2022-12-01T06:45:36;70.93;;;34.53;;
23072;SDS011;34865;51.046;3.732;2022-12-01T06:48:15;68.97;;;35.43;;
23072;SDS011;34865;51.046;3.732;2022-12-01T06:50:41;74.77;;;34.17;;
23072;SDS011;34865;51.046;3.732;2022-12-01T06:53:10;72.03;;;35.37;;
23072;SDS011;34865;51.046;3.732;2022-12-01T06:55:40;67.50;;;35.23;;
23072;SDS011;34865;51.046;3.732;2022-12-01T06:58:06;75.07;;;35.97;;
23072;SDS011;34865;51.046;3.732;2022-12-01T07:00:33;73.50;;;36.27;;
23072;SDS011;34865;51.046;3.732;2022-12-01T07:03:06;75.40;;;35.60;;
23072;SDS011;34865;51.046;3.732;2022-12-01T07:05:32;74.73;;;36.60;;
23072;SDS011;34865;51.046;3.732;2022-12-01T07:07:58;75.77;;;36.50;;
23072;SDS011;34865;51.046;3.732;2022-12-01T07:10:24;77.17;;;36.93;;
23072;SDS011;34865;51.046;3.732;2022-12-01T07:12:52;72.53;;;36.13;;
23072;SDS011;34865;51.046;3.732;2022-12-01T07:15:21;78.67;;;35.87;;
23072;SDS011;34865;51.046;3.732;2022-12-01T07:17:49;83.10;;;37.17;;
23072;SDS011;34865;51.046;3.732;2022-12-01T07:20:20;71.97;;;35.93;;
23072;SDS011;34865;51.046;3.732;2022-12-01T07:22:46;78.50;;;36.80;;
23072;SDS011;34865;51.046;3.732;2022-12-01T07:25:20;78.87;;;38.60;;
23072;SDS011;34865;51.046;3.732;2022-12-01T07:27:46;81.07;;;38.90;;
23072;SDS011;34865;51.046;3.732;2022-12-01T07:30:20;80.03;;;39.20;;
23072;SDS011;34865;51.046;3.732;2022-12-01T07:33:00;79.97;;;39.07;;
23072;SDS011;34865;51.046;3.732;2022-12-01T07:35:27;80.63;;;38.77;;
23072;SDS011;34865;51.046;3.732;2022-12-01T07:37:54;81.27;;;37.10;;
23072;SDS011;34865;51.046;3.732;2022-12-01T07:40:21;79.17;;;36.40;;
23072;SDS011;34865;51.046;3.732;2022-12-01T07:42:53;76.07;;;36.37;;
23072;SDS011;34865;51.046;3.732;2022-12-01T07:45:24;78.60;;;38.73;;
23072;SDS011;34865;51.046;3.732;2022-12-01T07:47:53;82.77;;;39.03;;
23072;SDS011;34865;51.046;3.732;2022-12-01T07:50:19;78.00;;;34.37;;
23072;SDS011;34865;51.046;3.732;2022-12-01T07:52:48;83.47;;;39.77;;
23072;SDS011;34865;51.046;3.732;2022-12-01T07:55:15;80.63;;;40.33;;
23072;SDS011;34865;51.046;3.732;2022-12-01T07:57:44;94.90;;;41.10;;
23072;SDS011;34865;51.046;3.732;2022-12-01T08:00:09;86.07;;;38.03;;
23072;SDS011;34865;51.046;3.732;2022-12-01T08:02:41;77.37;;;39.20;;
23072;SDS011;34865;51.046;3.732;2022-12-01T08:05:07;77.53;;;37.37;;
23072;SDS011;34865;51.046;3.732;2022-12-01T08:07:36;78.47;;;39.43;;
23072;SDS011;34865;51.046;3.732;2022-12-01T08:10:02;82.90;;;39.10;;
23072;SDS011;34865;51.046;3.732;2022-12-01T08:12:49;80.30;;;38.57;;
23072;SDS011;34865;51.046;3.732;2022-12-01T08:15:21;84.70;;;38.83;;
23072;SDS011;34865;51.046;3.732;2022-12-01T08:17:48;76.83;;;36.93;;
23072;SDS011;34865;51.046;3.732;2022-12-01T08:20:31;86.57;;;38.10;;
23072;SDS011;34865;51.046;3.732;2022-12-01T08:23:00;88.23;;;40.37;;
23072;SDS011;34865;51.046;3.732;2022-12-01T08:25:26;70.77;;;33.30;;
23072;SDS011;34865;51.046;3.732;2022-12-01T08:27:53;81.83;;;38.73;;
23072;SDS011;34865;51.046;3.732;2022-12-01T08:30:19;80.70;;;37.97;;
23072;SDS011;34865;51.046;3.732;2022-12-01T08:32:46;82.07;;;36.43;;
23072;SDS011;34865;51.046;3.732;2022-12-01T08:35:22;168.13;;;86.23;;
23072;SDS011;34865;51.046;3.732;2022-12-01T08:37:54;199.60;;;107.00;;
23072;SDS011;34865;51.046;3.732;2022-12-01T08:40:20;74.33;;;35.13;;
23072;SDS011;34865;51.046;3.732;2022-12-01T08:43:03;71.33;;;34.33;;
23072;SDS011;34865;51.046;3.732;2022-12-01T08:45:29;73.50;;;35.13;;
23072;SDS011;34865;51.046;3.732;2022-12-01T08:48:01;72.07;;;33.53;;
23072;SDS011;34865;51.046;3.732;2022-12-01T08:50:27;65.47;;;31.73;;
23072;SDS011;34865;51.046;3.732;2022-12-01T08:52:56;61.37;;;31.07;;
23072;SDS011;34865;51.046;3.732;2022-12-01T08:55:28;58.87;;;29.47;;
23072;SDS011;34865;51.046;3.732;2022-12-01T08:58:00;58.20;;;29.30;;
23072;SDS011;34865;51.046;3.732;2022-12-01T09:00:26;67.57;;;30.00;;
23072;SDS011;34865;51.046;3.732;2022-12-01T09:02:56;56.83;;;27.27;;
23072;SDS011;34865;51.046;3.732;2022-12-01T09:05:28;55.23;;;27.80;;
23072;SDS011;34865;51.046;3.732;2022-12-01T09:07:57;55.33;;;28.63;;
23072;SDS011;34865;51.046;3.732;2022-12-01T09:10:51;53.40;;;25.30;;
23072;SDS011;34865;51.046;3.732;2022-12-01T09:13:26;53.60;;;26.37;;
23072;SDS011;34865;51.046;3.732;2022-12-01T09:16:05;50.87;;;25.33;;
23072;SDS011;34865;51.046;3.732;2022-12-01T09:18:45;53.33;;;26.70;;
23072;SDS011;34865;51.046;3.732;2022-12-01T09:21:14;54.17;;;26.33;;
23072;SDS011;34865;51.046;3.732;2022-12-01T09:23:47;41.97;;;23.97;;
23072;SDS011;34865;51.046;3.732;2022-12-01T09:26:20;44.13;;;25.40;;
23072;SDS011;34865;51.046;3.732;2022-12-01T09:28:51;46.13;;;25.30;;
23072;SDS011;34865;51.046;3.732;2022-12-01T09:31:24;48.77;;;24.00;;
23072;SDS011;34865;51.046;3.732;2022-12-01T09:33:57;46.47;;;26.13;;
23072;SDS011;34865;51.046;3.732;2022-12-01T09:36:27;49.23;;;25.43;;
23072;SDS011;34865;51.046;3.732;2022-12-01T09:39:02;46.40;;;25.47;;
23072;SDS011;34865;51.046;3.732;2022-12-01T09:42:10;41.80;;;23.87;;
23072;SDS011;34865;51.046;3.732;2022-12-01T09:44:55;48.50;;;26.57;;
23072;SDS011;34865;51.046;3.732;2022-12-01T09:47:28;50.40;;;25.47;;
23072;SDS011;34865;51.046;3.732;2022-12-01T09:52:41;50.60;;;27.73;;
23072;SDS011;34865;51.046;3.732;2022-12-01T09:55:13;52.43;;;25.73;;
23072;SDS011;34865;51.046;3.732;2022-12-01T09:57:52;46.07;;;23.87;;
23072;SDS011;34865;51.046;3.732;2022-12-01T10:00:22;52.03;;;27.63;;
23072;SDS011;34865;51.046;3.732;2022-12-01T10:05:24;53.70;;;27.70;;
23072;SDS011;34865;51.046;3.732;2022-12-01T10:07:59;49.07;;;28.30;;
23072;SDS011;34865;51.046;3.732;2022-12-01T10:10:38;57.10;;;28.60;;
23072;SDS011;34865;51.046;3.732;2022-12-01T10:13:16;51.27;;;28.43;;
23072;SDS011;34865;51.046;3.732;2022-12-01T10:15:53;57.97;;;29.03;;
23072;SDS011;34865;51.046;3.732;2022-12-01T10:24:19;60.83;;;29.10;;
23072;SDS011;34865;51.046;3.732;2022-12-01T10:27:12;66.87;;;31.23;;
23072;SDS011;34865;51.046;3.732;2022-12-01T10:29:52;61.80;;;30.50;;
23072;SDS011;34865;51.046;3.732;2022-12-01T10:35:27;62.80;;;32.03;;
23072;SDS011;34865;51.046;3.732;2022-12-01T10:38:02;62.23;;;31.43;;
23072;SDS011;34865;51.046;3.732;2022-12-01T10:40:30;65.20;;;32.93;;
23072;SDS011;34865;51.046;3.732;2022-12-01T10:42:59;69.10;;;31.93;;
23072;SDS011;34865;51.046;3.732;2022-12-01T10:45:36;71.23;;;34.30;;
23072;SDS011;34865;51.046;3.732;2022-12-01T10:50:49;57.63;;;30.93;;
23072;SDS011;34865;51.046;3.732;2022-12-01T10:53:30;62.63;;;32.20;;
23072;SDS011;34865;51.046;3.732;2022-12-01T10:56:08;68.30;;;33.20;;
23072;SDS011;34865;51.046;3.732;2022-12-01T10:58:43;55.17;;;28.93;;
23072;SDS011;34865;51.046;3.732;2022-12-01T11:01:17;58.80;;;30.70;;
23072;SDS011;34865;51.046;3.732;2022-12-01T11:03:48;60.07;;;30.77;;
23072;SDS011;34865;51.046;3.732;2022-12-01T11:06:38;55.33;;;30.53;;
23072;SDS011;34865;51.046;3.732;2022-12-01T11:09:05;58.30;;;28.90;;
23072;SDS011;34865;51.046;3.732;2022-12-01T11:11:42;54.80;;;29.77;;
23072;SDS011;34865;51.046;3.732;2022-12-01T11:14:17;58.47;;;32.87;;
23072;SDS011;34865;51.046;3.732;2022-12-01T11:16:48;58.17;;;31.60;;
23072;SDS011;34865;51.046;3.732;2022-12-01T11:21:57;62.57;;;30.67;;
23072;SDS011;34865;51.046;3.732;2022-12-01T11:27:13;64.43;;;33.00;;
23072;SDS011;34865;51.046;3.732;2022-12-01T11:29:55;66.07;;;32.10;;
23072;SDS011;34865;51.046;3.732;2022-12-01T11:32:29;64.53;;;32.67;;
23072;SDS011;34865;51.046;3.732;2022-12-01T11:37:52;64.07;;;33.70;;
23072;SDS011;34865;51.046;3.732;2022-12-01T11:40:22;66.37;;;34.10;;
23072;SDS011;34865;51.046;3.732;2022-12-01T11:43:25;62.57;;;31.50;;
23072;SDS011;34865;51.046;3.732;2022-12-01T11:46:00;57.33;;;30.97;;
23072;SDS011;34865;51.046;3.732;2022-12-01T11:48:31;59.67;;;30.10;;
23072;SDS011;34865;51.046;3.732;2022-12-01T11:53:37;60.00;;;30.80;;
23072;SDS011;34865;51.046;3.732;2022-12-01T11:56:21;58.63;;;32.27;;
23072;SDS011;34865;51.046;3.732;2022-12-01T11:58:47;58.20;;;31.33;;
23072;SDS011;34865;51.046;3.732;2022-12-01T12:01:21;57.03;;;31.87;;
23072;SDS011;34865;51.046;3.732;2022-12-01T12:03:54;62.70;;;31.27;;
23072;SDS011;34865;51.046;3.732;2022-12-01T12:06:33;53.47;;;31.23;;
23072;SDS011;34865;51.046;3.732;2022-12-01T12:12:15;55.47;;;31.07;;
23072;SDS011;34865;51.046;3.732;2022-12-01T12:15:14;62.27;;;33.27;;
23072;SDS011;34865;51.046;3.732;2022-12-01T12:28:04;48.87;;;27.17;;
23072;SDS011;34865;51.046;3.732;2022-12-01T12:30:30;53.80;;;30.10;;
23072;SDS011;34865;51.046;3.732;2022-12-01T12:36:15;62.73;;;33.40;;
23072;SDS011;34865;51.046;3.732;2022-12-01T12:41:36;59.90;;;30.90;;
23072;SDS011;34865;51.046;3.732;2022-12-01T12:44:14;58.97;;;30.63;;
23072;SDS011;34865;51.046;3.732;2022-12-01T12:49:50;52.17;;;28.77;;
23072;SDS011;34865;51.046;3.732;2022-12-01T12:52:23;54.77;;;30.60;;
23072;SDS011;34865;51.046;3.732;2022-12-01T12:54:59;52.87;;;31.60;;
23072;SDS011;34865;51.046;3.732;2022-12-01T12:57:58;52.60;;;28.20;;
23072;SDS011;34865;51.046;3.732;2022-12-01T13:01:00;44.93;;;26.10;;
23072;SDS011;34865;51.046;3.732;2022-12-01T13:06:26;52.67;;;27.97;;
23072;SDS011;34865;51.046;3.732;2022-12-01T13:11:31;42.07;;;22.90;;
23072;SDS011;34865;51.046;3.732;2022-12-01T13:14:06;43.33;;;24.53;;
23072;SDS011;34865;51.046;3.732;2022-12-01T13:19:57;41.93;;;21.80;;
23072;SDS011;34865;51.046;3.732;2022-12-01T13:22:33;41.20;;;23.00;;
23072;SDS011;34865;51.046;3.732;2022-12-01T13:25:01;41.50;;;23.00;;
23072;SDS011;34865;51.046;3.732;2022-12-01T13:27:29;37.70;;;21.90;;
23072;SDS011;34865;51.046;3.732;2022-12-01T13:29:58;35.80;;;20.97;;
23072;SDS011;34865;51.046;3.732;2022-12-01T13:32:37;39.40;;;21.50;;
23072;SDS011;34865;51.046;3.732;2022-12-01T13:35:16;39.77;;;22.63;;
23072;SDS011;34865;51.046;3.732;2022-12-01T13:38:15;42.67;;;24.80;;
23072;SDS011;34865;51.046;3.732;2022-12-01T13:40:44;35.33;;;21.90;;
23072;SDS011;34865;51.046;3.732;2022-12-01T13:43:18;45.50;;;22.77;;
23072;SDS011;34865;51.046;3.732;2022-12-01T13:45:49;43.00;;;23.27;;
23072;SDS011;34865;51.046;3.732;2022-12-01T13:51:09;39.23;;;20.07;;
23072;SDS011;34865;51.046;3.732;2022-12-01T13:53:56;38.20;;;19.63;;
23072;SDS011;34865;51.046;3.732;2022-12-01T13:57:11;41.27;;;21.27;;
23072;SDS011;34865;51.046;3.732;2022-12-01T14:00:27;36.93;;;20.57;;
23072;SDS011;34865;51.046;3.732;2022-12-01T14:03:36;32.00;;;18.07;;
23072;SDS011;34865;51.046;3.732;2022-12-01T14:06:36;38.70;;;19.60;;
23072;SDS011;34865;51.046;3.732;2022-12-01T14:09:34;35.40;;;17.90;;
23072;SDS011;34865;51.046;3.732;2022-12-01T14:12:17;37.97;;;19.70;;
23072;SDS011;34865;51.046;3.732;2022-12-01T14:18:28;36.43;;;20.27;;
23072;SDS011;34865;51.046;3.732;2022-12-01T14:21:10;32.60;;;18.47;;
23072;SDS011;34865;51.046;3.732;2022-12-01T14:24:32;34.40;;;18.43;;
23072;SDS011;34865;51.046;3.732;2022-12-01T14:27:04;34.70;;;18.60;;
23072;SDS011;34865;51.046;3.732;2022-12-01T14:29:38;35.50;;;19.73;;
23072;SDS011;34865;51.046;3.732;2022-12-01T14:34:49;34.83;;;19.57;;
23072;SDS011;34865;51.046;3.732;2022-12-01T14:37:18;38.50;;;19.43;;
23072;SDS011;34865;51.046;3.732;2022-12-01T14:39:51;44.57;;;21.73;;
23072;SDS011;34865;51.046;3.732;2022-12-01T14:42:37;36.93;;;21.17;;
23072;SDS011;34865;51.046;3.732;2022-12-01T14:45:31;38.20;;;21.50;;
23072;SDS011;34865;51.046;3.732;2022-12-01T14:48:11;37.83;;;20.90;;
23072;SDS011;34865;51.046;3.732;2022-12-01T14:50:42;41.57;;;21.17;;
23072;SDS011;34865;51.046;3.732;2022-12-01T14:55:51;45.47;;;22.70;;
23072;SDS011;34865;51.046;3.732;2022-12-01T14:58:22;47.93;;;22.07;;
23072;SDS011;34865;51.046;3.732;2022-12-01T15:03:47;46.97;;;24.30;;
23072;SDS011;34865;51.046;3.732;2022-12-01T15:06:18;47.23;;;24.13;;
23072;SDS011;34865;51.046;3.732;2022-12-01T15:14:35;47.90;;;24.30;;
23072;SDS011;34865;51.046;3.732;2022-12-01T15:17:03;52.60;;;24.57;;
23072;SDS011;34865;51.046;3.732;2022-12-01T15:19:53;50.37;;;25.97;;
23072;SDS011;34865;51.046;3.732;2022-12-01T15:22:19;48.47;;;25.70;;
23072;SDS011;34865;51.046;3.732;2022-12-01T15:24:44;51.47;;;24.77;;
23072;SDS011;34865;51.046;3.732;2022-12-01T15:27:25;56.60;;;25.63;;
23072;SDS011;34865;51.046;3.732;2022-12-01T15:30:01;54.00;;;26.57;;
23072;SDS011;34865;51.046;3.732;2022-12-01T15:32:29;51.43;;;23.90;;
23072;SDS011;34865;51.046;3.732;2022-12-01T15:35:20;52.37;;;27.00;;
23072;SDS011;34865;51.046;3.732;2022-12-01T15:37:55;53.27;;;27.67;;
23072;SDS011;34865;51.046;3.732;2022-12-01T15:40:28;56.73;;;26.87;;
23072;SDS011;34865;51.046;3.732;2022-12-01T15:43:01;56.43;;;27.93;;
23072;SDS011;34865;51.046;3.732;2022-12-01T15:45:40;58.53;;;28.83;;
23072;SDS011;34865;51.046;3.732;2022-12-01T15:48:15;62.77;;;29.20;;
23072;SDS011;34865;51.046;3.732;2022-12-01T15:50:47;57.70;;;27.93;;
23072;SDS011;34865;51.046;3.732;2022-12-01T15:53:28;60.10;;;27.70;;
23072;SDS011;34865;51.046;3.732;2022-12-01T15:55:57;58.17;;;28.40;;
23072;SDS011;34865;51.046;3.732;2022-12-01T15:58:33;67.37;;;30.50;;
23072;SDS011;34865;51.046;3.732;2022-12-01T16:01:10;59.90;;;29.80;;
23072;SDS011;34865;51.046;3.732;2022-12-01T16:03:55;60.50;;;29.03;;
23072;SDS011;34865;51.046;3.732;2022-12-01T16:06:32;58.33;;;27.67;;
23072;SDS011;34865;51.046;3.732;2022-12-01T16:09:06;66.37;;;27.90;;
23072;SDS011;34865;51.046;3.732;2022-12-01T16:20:32;52.47;;;25.93;;
23072;SDS011;34865;51.046;3.732;2022-12-01T16:23:07;58.03;;;26.57;;
23072;SDS011;34865;51.046;3.732;2022-12-01T16:25:36;58.97;;;28.70;;
23072;SDS011;34865;51.046;3.732;2022-12-01T16:28:04;55.83;;;27.30;;
23072;SDS011;34865;51.046;3.732;2022-12-01T16:30:35;55.13;;;27.07;;
23072;SDS011;34865;51.046;3.732;2022-12-01T16:35:50;64.20;;;27.87;;
23072;SDS011;34865;51.046;3.732;2022-12-01T16:38:23;56.70;;;27.23;;
23072;SDS011;34865;51.046;3.732;2022-12-01T16:40:59;56.93;;;27.70;;
23072;SDS011;34865;51.046;3.732;2022-12-01T16:43:41;62.60;;;25.40;;
23072;SDS011;34865;51.046;3.732;2022-12-01T16:46:09;63.30;;;27.90;;
23072;SDS011;34865;51.046;3.732;2022-12-01T16:48:37;61.50;;;28.83;;
23072;SDS011;34865;51.046;3.732;2022-12-01T16:51:03;62.83;;;28.23;;
23072;SDS011;34865;51.046;3.732;2022-12-01T16:53:38;61.53;;;28.03;;
23072;SDS011;34865;51.046;3.732;2022-12-01T16:56:04;54.97;;;24.90;;
23072;SDS011;34865;51.046;3.732;2022-12-01T16:58:36;62.40;;;28.90;;
23072;SDS011;34865;51.046;3.732;2022-12-01T17:01:15;58.47;;;29.87;;
23072;SDS011;34865;51.046;3.732;2022-12-01T17:03:42;62.03;;;29.73;;
23072;SDS011;34865;51.046;3.732;2022-12-01T17:06:09;59.80;;;28.77;;
23072;SDS011;34865;51.046;3.732;2022-12-01T17:08:41;61.43;;;29.60;;
23072;SDS011;34865;51.046;3.732;2022-12-01T17:11:08;58.13;;;28.20;;
23072;SDS011;34865;51.046;3.732;2022-12-01T17:13:42;60.47;;;29.53;;
23072;SDS011;34865;51.046;3.732;2022-12-01T17:16:16;66.73;;;36.27;;
23072;SDS011;34865;51.046;3.732;2022-12-01T17:18:44;64.57;;;32.47;;
23072;SDS011;34865;51.046;3.732;2022-12-01T17:21:10;58.40;;;29.10;;
23072;SDS011;34865;51.046;3.732;2022-12-01T17:23:36;66.10;;;31.70;;
23072;SDS011;34865;51.046;3.732;2022-12-01T17:26:15;63.73;;;29.97;;
23072;SDS011;34865;51.046;3.732;2022-12-01T17:28:42;62.83;;;31.90;;
23072;SDS011;34865;51.046;3.732;2022-12-01T17:31:08;58.20;;;29.27;;
23072;SDS011;34865;51.046;3.732;2022-12-01T17:33:35;62.27;;;29.87;;
23072;SDS011;34865;51.046;3.732;2022-12-01T17:36:02;63.10;;;30.33;;
23072;SDS011;34865;51.046;3.732;2022-12-01T17:38:32;66.20;;;31.80;;
23072;SDS011;34865;51.046;3.732;2022-12-01T17:41:10;66.90;;;31.23;;
23072;SDS011;34865;51.046;3.732;2022-12-01T17:43:37;63.10;;;30.73;;
23072;SDS011;34865;51.046;3.732;2022-12-01T17:46:04;62.83;;;31.27;;
23072;SDS011;34865;51.046;3.732;2022-12-01T17:48:35;65.80;;;32.77;;
23072;SDS011;34865;51.046;3.732;2022-12-01T17:51:08;66.47;;;30.93;;
23072;SDS011;34865;51.046;3.732;2022-12-01T17:53:36;67.07;;;31.03;;
23072;SDS011;34865;51.046;3.732;2022-12-01T17:56:07;68.37;;;30.37;;
23072;SDS011;34865;51.046;3.732;2022-12-01T17:58:34;67.23;;;32.57;;
23072;SDS011;34865;51.046;3.732;2022-12-01T18:01:00;67.23;;;33.03;;
23072;SDS011;34865;51.046;3.732;2022-12-01T18:03:25;69.20;;;32.30;;